createdAt,value
2022-12-11T00:04:18.460Z,16.45
2022-12-11T00:09:20.994Z,14.23
2022-12-11T00:14:22.457Z,15.32
2022-12-11T00:19:23.923Z,16.02
2022-12-11T00:24:25.410Z,16.45
2022-12-11T00:29:26.923Z,16.77
2022-12-11T00:34:28.423Z,18.33
2022-12-11T00:39:29.878Z,17.30
2022-12-11T00:44:31.388Z,19.75
2022-12-11T00:49:33.007Z,18.83
2022-12-11T00:54:34.583Z,19.35
2022-12-11T00:59:36.019Z,20.60
2022-12-11T01:04:37.521Z,21.60
2022-12-11T01:09:57.968Z,21.70
2022-12-11T01:14:59.406Z,21.23
2022-12-11T01:20:00.850Z,20.35
2022-12-11T01:25:02.648Z,19.33
2022-12-11T01:30:07.476Z,23.08
2022-12-11T01:35:09.920Z,19.77
2022-12-11T01:40:16.855Z,21.45
2022-12-11T01:45:40.322Z,22.30
2022-12-11T01:50:52.230Z,23.75
2022-12-11T01:55:57.127Z,22.23
2022-12-11T02:00:59.240Z,23.98
2022-12-11T02:06:01.847Z,24.40
2022-12-11T02:11:21.013Z,24.17
2022-12-11T02:16:42.126Z,22.50
2022-12-11T02:21:49.370Z,24.63
2022-12-11T02:27:08.853Z,25.63
2022-12-11T02:32:31.310Z,25.70
2022-12-11T02:37:38.019Z,23.60
2022-12-11T02:42:42.478Z,23.40
2022-12-11T02:47:47.159Z,24.90
2022-12-11T02:52:51.764Z,23.88
2022-12-11T02:58:00.371Z,25.38
2022-12-11T03:03:02.435Z,25.23
2022-12-11T03:08:04.383Z,27.17
2022-12-11T03:13:05.896Z,24.73
2022-12-11T03:18:32.100Z,25.17
2022-12-11T03:23:44.020Z,25.38
2022-12-11T03:28:59.573Z,22.52
2022-12-11T03:34:04.462Z,24.35
2022-12-11T03:39:12.505Z,26.33
2022-12-11T03:44:15.906Z,24.38
2022-12-11T03:49:22.068Z,22.83
2022-12-11T03:54:24.836Z,23.35
2022-12-11T03:59:26.284Z,22.63
2022-12-11T04:04:27.826Z,22.05
2022-12-11T04:09:29.438Z,23.88
2022-12-11T04:14:49.557Z,21.95
2022-12-11T04:20:09.518Z,22.55
2022-12-11T04:25:11.375Z,21.65
2022-12-11T04:30:16.574Z,23.40
2022-12-11T04:35:20.110Z,25.05
2022-12-11T04:40:22.459Z,22.55
2022-12-11T04:45:23.940Z,23.40
2022-12-11T04:50:25.972Z,23.35
2022-12-11T04:55:27.392Z,21.30
2022-12-11T05:00:28.821Z,22.15
2022-12-11T05:05:30.328Z,23.45
2022-12-11T05:10:31.906Z,23.80
2022-12-11T05:15:33.394Z,23.35
2022-12-11T05:20:34.888Z,20.85
2022-12-11T05:25:36.328Z,23.58
2022-12-11T05:30:37.880Z,24.27
2022-12-11T05:35:39.363Z,21.85
2022-12-11T05:40:40.908Z,22.85
2022-12-11T05:45:42.349Z,20.05
2022-12-11T05:50:43.904Z,19.92
2022-12-11T05:55:45.332Z,22.55
2022-12-11T06:00:47.889Z,23.08
2022-12-11T06:05:49.453Z,21.73
2022-12-11T06:10:51.006Z,21.42
2022-12-11T06:15:53.116Z,22.20
2022-12-11T06:20:54.726Z,23.08
2022-12-11T06:25:56.183Z,23.77
2022-12-11T06:31:01.264Z,23.77
2022-12-11T06:36:04.431Z,21.70
2022-12-11T06:41:07.257Z,22.55
2022-12-11T06:46:11.690Z,23.48
2022-12-11T06:51:16.265Z,24.08
2022-12-11T06:56:17.744Z,21.25
2022-12-11T07:01:27.314Z,22.17
2022-12-11T07:06:29.838Z,23.48
2022-12-11T07:11:31.340Z,23.52
2022-12-11T07:16:32.955Z,23.13
2022-12-11T07:21:34.692Z,23.55
2022-12-11T07:26:36.168Z,22.98
2022-12-11T07:31:37.739Z,21.63
2022-12-11T07:36:39.355Z,24.15
2022-12-11T07:41:40.963Z,23.98
2022-12-11T07:46:42.609Z,21.60
2022-12-11T07:51:44.124Z,22.48
2022-12-11T07:56:52.781Z,20.80
2022-12-11T08:01:55.162Z,25.90
2022-12-11T08:06:57.780Z,28.45
2022-12-11T08:11:59.298Z,26.88
2022-12-11T08:17:02.515Z,24.95
2022-12-11T08:22:04.156Z,27.10
2022-12-11T08:27:05.721Z,20.00
2022-12-11T08:32:12.072Z,20.58
2022-12-11T08:37:13.999Z,19.77
2022-12-11T08:42:15.512Z,19.55
2022-12-11T08:47:17.067Z,18.63
2022-12-11T08:52:18.707Z,18.45
2022-12-11T08:57:20.213Z,18.25
2022-12-11T09:02:21.830Z,23.15
2022-12-11T09:07:23.336Z,21.50
2022-12-11T09:12:24.987Z,20.15
2022-12-11T09:17:26.947Z,20.63
2022-12-11T09:22:28.683Z,20.92
2022-12-11T09:27:30.210Z,20.88
2022-12-11T09:32:31.825Z,19.52
2022-12-11T09:37:34.006Z,20.08
2022-12-11T09:43:03.303Z,20.35
2022-12-11T09:48:05.203Z,20.55
2022-12-11T09:53:19.561Z,20.08
2022-12-11T09:58:21.011Z,23.02
2022-12-11T10:03:37.137Z,26.95
2022-12-11T10:08:41.587Z,23.98
2022-12-11T10:13:46.086Z,24.23
2022-12-11T10:18:49.174Z,23.65
2022-12-11T10:23:58.564Z,23.55
2022-12-11T10:29:01.873Z,24.88
2022-12-11T10:34:11.745Z,21.75
2022-12-11T10:39:22.110Z,19.67
2022-12-11T10:49:31.973Z,19.45
2022-12-11T10:54:38.310Z,19.65
2022-12-11T10:59:50.054Z,18.08
2022-12-11T11:04:53.192Z,19.92
2022-12-11T11:10:14.260Z,17.02
2022-12-11T11:15:18.095Z,18.42
2022-12-11T11:20:22.648Z,17.00
2022-12-11T11:25:27.011Z,17.50
2022-12-11T11:30:38.513Z,17.95
2022-12-11T11:35:45.658Z,20.02
2022-12-11T11:41:14.777Z,27.98
2022-12-11T11:46:38.608Z,19.45
2022-12-11T11:51:46.272Z,22.40
2022-12-11T11:56:53.809Z,24.98
2022-12-11T12:01:57.173Z,25.35
2022-12-11T12:07:10.646Z,23.25
2022-12-11T12:12:37.220Z,17.60
2022-12-11T12:17:56.476Z,17.15
2022-12-11T12:23:14.295Z,15.05
2022-12-11T12:28:27.874Z,16.95
2022-12-11T12:34:21.858Z,16.13
2022-12-11T12:39:48.273Z,16.08
2022-12-11T12:45:07.915Z,22.55
2022-12-11T12:50:13.891Z,20.60
2022-12-11T12:55:29.009Z,16.00
2022-12-11T13:00:30.484Z,16.48
2022-12-11T13:05:34.465Z,14.93
2022-12-11T13:10:38.093Z,14.07
2022-12-11T13:15:43.828Z,14.75
2022-12-11T13:20:51.765Z,14.00
2022-12-11T13:25:59.590Z,14.27
2022-12-11T13:31:24.103Z,14.82
2022-12-11T13:36:37.801Z,14.10
2022-12-11T13:41:40.446Z,15.30
2022-12-11T13:46:44.067Z,16.60
2022-12-11T13:51:53.228Z,16.80
2022-12-11T13:57:00.418Z,16.08
2022-12-11T14:02:12.970Z,16.90
2022-12-11T14:07:20.798Z,17.05
2022-12-11T14:12:22.421Z,17.00
2022-12-11T14:17:27.540Z,15.15
2022-12-11T14:22:30.470Z,15.13
2022-12-11T14:27:32.244Z,19.73
2022-12-11T14:32:45.021Z,17.70
2022-12-11T14:37:46.904Z,18.05
2022-12-11T14:43:00.011Z,16.17
2022-12-11T14:48:07.776Z,16.42
2022-12-11T14:53:29.305Z,14.82
2022-12-11T14:58:33.092Z,13.88
2022-12-11T15:03:37.083Z,16.63
2022-12-11T15:08:38.662Z,16.30
2022-12-11T15:14:02.997Z,15.68
2022-12-11T15:19:04.691Z,16.73
2022-12-11T15:24:07.107Z,17.48
2022-12-11T15:29:30.760Z,13.18
2022-12-11T15:34:43.072Z,21.77
2022-12-11T15:39:44.648Z,17.77
2022-12-11T15:44:46.369Z,18.42
2022-12-11T15:49:47.776Z,15.00
2022-12-11T15:54:49.200Z,15.90
2022-12-11T15:59:52.663Z,15.05
2022-12-11T16:04:54.498Z,16.95
2022-12-11T16:09:55.918Z,16.73
2022-12-11T16:14:57.409Z,17.92
2022-12-11T16:19:58.963Z,16.13
2022-12-11T16:25:00.508Z,19.05
2022-12-11T16:30:01.985Z,19.20
2022-12-11T16:35:03.750Z,18.25
2022-12-11T16:40:06.696Z,20.23
2022-12-11T16:45:12.745Z,24.20
2022-12-11T16:50:15.716Z,22.67
2022-12-11T16:55:21.049Z,30.95
2022-12-11T17:00:22.795Z,26.17
2022-12-11T17:05:24.889Z,23.48
2022-12-11T17:10:26.331Z,24.10
2022-12-11T17:15:27.927Z,23.13
2022-12-11T17:20:29.472Z,32.92
2022-12-11T17:25:30.994Z,21.50
2022-12-11T17:30:32.890Z,32.50
2022-12-11T17:35:34.592Z,27.58
2022-12-11T17:40:40.300Z,21.33
2022-12-11T17:45:43.436Z,28.08
2022-12-11T17:50:47.026Z,24.25
2022-12-11T17:55:49.818Z,20.55
2022-12-11T18:00:55.714Z,20.58
2022-12-11T18:05:57.799Z,24.73
2022-12-11T18:11:13.467Z,19.80
2022-12-11T18:16:18.154Z,28.48
2022-12-11T18:21:22.709Z,29.42
2022-12-11T18:26:24.503Z,23.90
2022-12-11T18:31:26.206Z,25.10
2022-12-11T18:36:27.771Z,19.80
2022-12-11T18:41:29.241Z,19.25
2022-12-11T18:46:30.734Z,20.90
2022-12-11T18:51:32.280Z,20.05
2022-12-11T18:56:33.826Z,22.55
2022-12-11T19:01:35.455Z,20.38
2022-12-11T19:06:37.002Z,18.38
2022-12-11T19:11:40.506Z,19.15
2022-12-11T19:16:45.390Z,22.10
2022-12-11T19:21:47.507Z,26.20
2022-12-11T19:26:49.412Z,26.85
2022-12-11T19:31:51.651Z,27.10
2022-12-11T19:36:53.773Z,25.83
2022-12-11T19:41:55.412Z,23.20
2022-12-11T19:46:56.998Z,21.48
2022-12-11T19:51:58.715Z,28.48
2022-12-11T19:57:00.228Z,30.30
2022-12-11T20:02:01.750Z,33.67
2022-12-11T20:07:03.910Z,31.45
2022-12-11T20:12:10.195Z,36.58
2022-12-11T20:17:14.627Z,28.15
2022-12-11T20:22:16.505Z,26.00
2022-12-11T20:27:18.155Z,25.92
2022-12-11T20:32:19.727Z,26.08
2022-12-11T20:37:21.242Z,22.83
2022-12-11T20:42:24.117Z,23.98
2022-12-11T20:47:25.887Z,26.13
2022-12-11T20:52:28.150Z,25.88
2022-12-11T20:57:29.575Z,26.05
2022-12-11T21:02:31.293Z,22.25
2022-12-11T21:07:32.871Z,26.80
2022-12-11T21:12:34.322Z,27.75
2022-12-11T21:17:35.954Z,26.95
2022-12-11T21:22:37.514Z,26.33
2022-12-11T21:27:39.091Z,29.30
2022-12-11T21:32:41.345Z,24.25
2022-12-11T21:37:42.789Z,22.55
2022-12-11T21:42:44.232Z,22.13
2022-12-11T21:47:45.730Z,23.85
2022-12-11T21:52:47.563Z,21.63
2022-12-11T21:57:49.078Z,24.88
2022-12-11T22:02:50.866Z,21.67
2022-12-11T22:07:52.414Z,23.85
2022-12-11T22:12:53.922Z,24.02
2022-12-11T22:17:55.383Z,24.55
2022-12-11T22:22:56.913Z,20.75
2022-12-11T22:27:58.350Z,19.95
2022-12-11T22:32:59.839Z,18.70
2022-12-11T22:38:01.743Z,18.35
2022-12-11T22:43:03.209Z,19.02
2022-12-11T22:48:05.162Z,17.02
2022-12-11T22:53:06.652Z,15.77
2022-12-11T22:58:08.071Z,18.25
2022-12-11T23:03:09.712Z,18.55
2022-12-11T23:08:11.351Z,17.27
2022-12-11T23:13:12.825Z,17.35
2022-12-11T23:18:14.367Z,17.52
2022-12-11T23:23:15.779Z,19.92
2022-12-11T23:28:17.270Z,16.67
2022-12-11T23:33:18.823Z,18.20
2022-12-11T23:38:20.288Z,15.00
2022-12-11T23:43:22.237Z,15.48
2022-12-11T23:48:23.722Z,14.55
2022-12-11T23:53:25.219Z,16.42
2022-12-11T23:58:26.646Z,15.23
